createdAt,value
2019-05-15T00:00:32.692Z,3.27
2019-05-15T00:03:04.162Z,3.53
2019-05-15T00:05:35.140Z,3.50
2019-05-15T00:08:09.031Z,3.80
2019-05-15T00:10:39.431Z,3.80
2019-05-15T00:13:10.766Z,3.37
2019-05-15T00:15:41.654Z,3.30
2019-05-15T00:18:12.865Z,3.10
2019-05-15T00:20:43.881Z,3.80
2019-05-15T00:23:15.126Z,4.60
2019-05-15T00:25:48.586Z,3.70
2019-05-15T00:28:18.522Z,4.33
2019-05-15T00:30:49.843Z,3.87
2019-05-15T00:33:20.822Z,4.30
2019-05-15T00:35:51.976Z,4.03
2019-05-15T00:38:22.884Z,5.80
2019-05-15T00:40:54.004Z,4.33
2019-05-15T00:43:24.897Z,4.03
2019-05-15T00:45:58.440Z,3.90
2019-05-15T00:48:29.298Z,4.00
2019-05-15T00:51:00.608Z,3.80
2019-05-15T00:53:31.554Z,4.20
2019-05-15T00:56:02.776Z,6.17
2019-05-15T00:58:33.815Z,5.13
2019-05-15T01:01:05.224Z,6.43
2019-05-15T01:03:38.538Z,4.93
2019-05-15T01:06:08.458Z,4.37
2019-05-15T01:08:39.678Z,4.93
2019-05-15T01:11:10.634Z,3.83
2019-05-15T01:13:41.779Z,3.30
2019-05-15T01:16:12.692Z,4.00
2019-05-15T01:18:43.888Z,3.50
2019-05-15T01:21:14.796Z,3.33
2019-05-15T01:23:48.246Z,3.50
2019-05-15T01:26:19.008Z,3.60
2019-05-15T01:28:50.228Z,3.63
2019-05-15T01:31:21.110Z,3.23
2019-05-15T01:33:52.258Z,3.30
2019-05-15T01:36:23.192Z,3.33
2019-05-15T01:38:53.303Z,3.60
2019-05-15T01:41:24.502Z,3.10
2019-05-15T01:43:55.386Z,3.40
2019-05-15T01:46:28.567Z,3.37
2019-05-15T01:48:59.210Z,3.50
2019-05-15T01:51:30.437Z,3.67
2019-05-15T01:54:01.323Z,3.40
2019-05-15T01:56:32.536Z,4.10
2019-05-15T01:59:03.522Z,3.23
2019-05-15T02:01:34.736Z,3.50
2019-05-15T02:04:05.719Z,3.50
2019-05-15T02:06:39.031Z,4.03
2019-05-15T02:09:09.545Z,3.23
2019-05-15T02:11:39.571Z,3.40
2019-05-15T02:14:10.700Z,3.57
2019-05-15T02:16:41.570Z,3.23
2019-05-15T02:19:12.815Z,2.83
2019-05-15T02:21:43.691Z,3.10
2019-05-15T02:24:14.934Z,3.07
2019-05-15T02:26:48.082Z,2.73
2019-05-15T02:29:24.719Z,2.80
2019-05-15T02:31:51.471Z,2.77
2019-05-15T02:34:22.588Z,2.67
2019-05-15T02:36:53.579Z,2.93
2019-05-15T02:39:24.834Z,2.50
2019-05-15T02:41:55.813Z,2.90
2019-05-15T02:44:28.909Z,3.13
2019-05-15T02:46:59.122Z,2.57
2019-05-15T02:49:30.394Z,2.50
2019-05-15T02:52:01.704Z,2.50
2019-05-15T02:54:32.615Z,2.30
2019-05-15T02:57:03.822Z,2.53
2019-05-15T02:59:34.834Z,2.73
2019-05-15T03:02:06.078Z,2.60
2019-05-15T03:04:39.940Z,2.30
2019-05-15T03:07:09.973Z,2.17
2019-05-15T03:09:40.920Z,2.17
2019-05-15T03:12:12.238Z,2.40
2019-05-15T03:14:43.253Z,2.10
2019-05-15T03:17:14.374Z,2.53
2019-05-15T03:19:45.396Z,2.40
2019-05-15T03:22:15.575Z,2.10
2019-05-15T03:24:49.999Z,1.93
2019-05-15T03:27:19.861Z,2.37
2019-05-15T03:29:51.234Z,2.00
2019-05-15T03:32:32.156Z,2.13
2019-05-15T03:34:57.294Z,1.97
2019-05-15T03:37:33.410Z,1.77
2019-05-15T03:40:00.753Z,1.70
2019-05-15T03:42:31.802Z,1.83
2019-05-15T03:45:03.099Z,1.57
2019-05-15T03:47:34.082Z,2.10
2019-05-15T03:50:09.115Z,1.60
2019-05-15T03:52:40.243Z,1.93
2019-05-15T03:55:11.236Z,1.70
2019-05-15T03:57:42.522Z,1.97
2019-05-15T04:00:14.058Z,2.27
2019-05-15T04:02:45.259Z,2.07
2019-05-15T04:05:16.327Z,2.00
2019-05-15T04:07:49.638Z,2.30
2019-05-15T04:10:20.277Z,2.27
2019-05-15T04:12:51.696Z,2.20
2019-05-15T04:15:22.724Z,2.20
2019-05-15T04:17:53.948Z,2.40
2019-05-15T04:20:24.909Z,2.17
2019-05-15T04:22:55.962Z,2.47
2019-05-15T04:25:29.692Z,2.10
2019-05-15T04:28:01.666Z,2.77
2019-05-15T04:30:32.585Z,2.87
2019-05-15T04:33:02.707Z,2.40
2019-05-15T04:35:33.950Z,1.90
2019-05-15T04:38:05.141Z,2.00
2019-05-15T04:40:39.287Z,2.30
2019-05-15T04:43:10.405Z,2.10
2019-05-15T04:45:41.988Z,2.17
2019-05-15T04:48:12.973Z,2.40
2019-05-15T04:50:44.170Z,2.10
2019-05-15T04:53:15.058Z,2.33
2019-05-15T04:55:49.104Z,2.30
2019-05-15T04:58:20.749Z,2.17
2019-05-15T05:00:55.622Z,2.13
2019-05-15T05:03:29.151Z,1.90
2019-05-15T05:05:59.265Z,2.07
2019-05-15T05:08:30.673Z,1.80
2019-05-15T05:11:01.739Z,2.10
2019-05-15T05:13:32.957Z,1.73
2019-05-15T05:16:04.001Z,1.80
2019-05-15T05:18:35.117Z,1.70
2019-05-15T05:21:07.766Z,1.73
2019-05-15T05:23:38.998Z,2.00
2019-05-15T05:26:11.209Z,1.60
2019-05-15T05:28:45.837Z,1.77
2019-05-15T05:31:19.059Z,2.10
2019-05-15T05:33:49.928Z,2.00
2019-05-15T05:36:24.461Z,2.37
2019-05-15T05:38:58.311Z,1.80
2019-05-15T05:41:28.898Z,1.83
2019-05-15T05:43:59.162Z,2.37
2019-05-15T05:46:30.384Z,1.70
2019-05-15T05:49:01.349Z,1.90
2019-05-15T05:51:32.460Z,2.27
2019-05-15T05:54:03.506Z,2.23
2019-05-15T05:56:34.602Z,2.00
2019-05-15T05:59:05.642Z,2.10
2019-05-15T06:01:43.556Z,2.03
2019-05-15T06:04:09.562Z,1.87
2019-05-15T06:06:40.693Z,1.60
2019-05-15T06:09:11.730Z,2.40
2019-05-15T06:11:43.016Z,2.43
2019-05-15T06:14:14.140Z,2.50
2019-05-15T06:16:48.193Z,2.40
2019-05-15T06:19:19.231Z,2.70
2019-05-15T06:21:57.172Z,1.90
2019-05-15T06:24:22.576Z,2.67
2019-05-15T06:26:53.551Z,1.83
2019-05-15T06:29:25.164Z,2.47
2019-05-15T06:31:56.110Z,1.83
2019-05-15T06:34:28.549Z,1.73
2019-05-15T06:36:59.623Z,2.67
2019-05-15T06:39:30.763Z,2.17
2019-05-15T06:42:01.670Z,4.93
2019-05-15T06:44:32.907Z,1.60
2019-05-15T06:47:03.873Z,2.10
2019-05-15T06:49:34.911Z,2.57
2019-05-15T06:52:06.006Z,3.30
2019-05-15T06:54:37.768Z,1.60
2019-05-15T06:57:09.310Z,1.90
2019-05-15T06:59:40.431Z,1.93
2019-05-15T07:02:11.764Z,2.50
2019-05-15T07:04:42.749Z,6.53
2019-05-15T07:07:14.092Z,2.60
2019-05-15T07:09:45.224Z,1.73
2019-05-15T07:12:18.524Z,2.00
2019-05-15T07:14:49.193Z,3.37
2019-05-15T07:17:20.368Z,2.10
2019-05-15T07:19:51.315Z,2.37
2019-05-15T07:22:22.665Z,2.23
2019-05-15T07:24:53.548Z,7.37
2019-05-15T07:27:23.715Z,4.63
2019-05-15T07:29:54.912Z,2.53
2019-05-15T07:32:28.383Z,2.83
2019-05-15T07:34:58.917Z,2.60
2019-05-15T07:37:29.868Z,1.93
2019-05-15T07:40:01.049Z,1.87
2019-05-15T07:42:32.308Z,2.00
2019-05-15T07:45:04.346Z,1.50
2019-05-15T07:47:35.296Z,1.70
2019-05-15T07:50:08.797Z,1.60
2019-05-15T07:52:40.628Z,1.77
2019-05-15T07:55:12.751Z,1.60
2019-05-15T07:57:43.774Z,2.00
2019-05-15T08:00:18.544Z,1.77
2019-05-15T08:02:48.859Z,3.07
2019-05-15T08:05:20.083Z,3.30
2019-05-15T08:07:51.190Z,1.87
2019-05-15T08:10:22.601Z,1.90
2019-05-15T08:12:53.666Z,1.60
2019-05-15T08:15:25.027Z,1.53
2019-05-15T08:20:30.336Z,1.30
2019-05-15T08:23:01.470Z,1.40
2019-05-15T08:25:35.449Z,1.93
2019-05-15T08:26:05.637Z,1.77
2019-05-15T08:28:05.351Z,2.47
2019-05-15T08:30:38.779Z,2.00
2019-05-15T08:33:09.876Z,3.07
2019-05-15T08:35:45.649Z,2.93
2019-05-15T08:38:14.314Z,1.90
2019-05-15T08:40:45.581Z,1.80
2019-05-15T08:43:18.420Z,2.03
2019-05-15T08:45:50.049Z,1.93
2019-05-15T08:48:21.021Z,1.63
2019-05-15T08:50:52.255Z,1.80
2019-05-15T08:53:23.211Z,1.80
2019-05-15T08:55:54.355Z,2.00
2019-05-15T08:58:25.284Z,3.20
2019-05-15T09:00:58.779Z,3.70
2019-05-15T09:03:29.261Z,2.37
2019-05-15T09:06:00.543Z,2.83
2019-05-15T09:08:31.510Z,2.00
2019-05-15T09:11:02.728Z,2.10
2019-05-15T09:13:33.687Z,1.90
2019-05-15T09:16:03.803Z,2.23
2019-05-15T09:18:34.969Z,2.00
2019-05-15T09:21:08.576Z,2.03
2019-05-15T09:23:39.133Z,2.13
2019-05-15T09:26:10.174Z,1.73
2019-05-15T09:28:41.321Z,1.57
2019-05-15T09:31:12.260Z,1.70
2019-05-15T09:33:43.330Z,2.00
2019-05-15T09:36:20.985Z,1.70
2019-05-15T09:38:52.231Z,2.23
2019-05-15T09:41:28.468Z,2.70
2019-05-15T09:43:59.151Z,1.77
2019-05-15T09:46:30.141Z,1.67
2019-05-15T09:49:00.611Z,2.20
2019-05-15T09:51:31.792Z,1.87
2019-05-15T09:54:02.763Z,1.60
2019-05-15T09:56:33.953Z,1.67
2019-05-15T09:59:05.099Z,1.80
2019-05-15T10:01:39.270Z,1.50
2019-05-15T10:04:08.844Z,1.70
2019-05-15T10:06:40.193Z,5.20
2019-05-15T10:09:11.227Z,3.50
2019-05-15T10:11:42.527Z,2.20
2019-05-15T10:14:13.576Z,2.57
2019-05-15T10:16:44.903Z,2.30
2019-05-15T10:19:18.354Z,1.90
2019-05-15T10:21:53.073Z,1.80
2019-05-15T10:24:21.542Z,1.53
2019-05-15T10:26:51.639Z,1.60
2019-05-15T10:29:22.962Z,1.90
2019-05-15T10:31:53.994Z,1.70
2019-05-15T10:34:25.349Z,1.80
2019-05-15T10:36:56.214Z,1.90
2019-05-15T10:39:28.782Z,1.83
2019-05-15T10:42:00.023Z,1.70
2019-05-15T10:44:35.519Z,1.80
2019-05-15T10:47:08.833Z,1.70
2019-05-15T10:49:39.846Z,1.33
2019-05-15T10:52:12.443Z,1.60
2019-05-15T10:54:43.684Z,1.20
2019-05-15T10:57:14.728Z,1.40
2019-05-15T10:59:44.828Z,1.63
2019-05-15T11:02:16.152Z,1.60
2019-05-15T11:04:48.695Z,1.40
2019-05-15T11:07:19.943Z,1.40
2019-05-15T11:09:50.936Z,1.80
2019-05-15T11:12:22.062Z,1.53
2019-05-15T11:14:52.954Z,1.33
2019-05-15T11:17:24.400Z,1.40
2019-05-15T11:19:55.373Z,1.20
2019-05-15T11:22:29.876Z,1.40
2019-05-15T11:25:00.834Z,1.60
2019-05-15T11:27:32.226Z,1.50
2019-05-15T11:30:04.519Z,1.40
2019-05-15T11:32:35.649Z,1.40
2019-05-15T11:35:09.508Z,1.30
2019-05-15T11:37:46.021Z,1.20
2019-05-15T11:40:13.947Z,1.10
2019-05-15T11:42:48.749Z,1.40
2019-05-15T11:45:21.235Z,1.00
2019-05-15T11:47:53.752Z,1.50
2019-05-15T11:50:25.204Z,1.20
2019-05-15T11:52:58.485Z,1.10
2019-05-15T11:55:29.208Z,1.10
2019-05-15T11:58:00.497Z,1.37
2019-05-15T12:00:33.410Z,1.30
2019-05-15T12:03:04.444Z,1.53
2019-05-15T12:05:38.280Z,1.20
2019-05-15T12:08:10.673Z,1.17
2019-05-15T12:10:41.425Z,1.20
2019-05-15T12:13:12.550Z,1.30
2019-05-15T12:15:44.168Z,1.37
2019-05-15T12:18:15.425Z,1.23
2019-05-15T12:20:48.576Z,1.10
2019-05-15T12:23:22.928Z,2.70
2019-05-15T12:25:53.875Z,1.33
2019-05-15T12:28:25.038Z,1.30
2019-05-15T12:33:30.784Z,1.13
2019-05-15T12:36:10.196Z,1.20
2019-05-15T12:38:39.926Z,1.10
2019-05-15T13:01:32.237Z,1.00
2019-05-15T13:04:03.260Z,0.80
2019-05-15T13:06:47.332Z,0.90
2019-05-15T13:09:08.692Z,0.80
2019-05-15T13:11:40.219Z,0.80
2019-05-15T13:14:11.258Z,1.00
2019-05-15T13:16:42.404Z,1.10
2019-05-15T13:19:13.515Z,1.47
2019-05-15T13:21:44.882Z,1.10
2019-05-15T13:24:15.769Z,1.00
2019-05-15T13:26:47.657Z,1.30
2019-05-15T13:29:18.961Z,1.27
2019-05-15T13:31:50.005Z,1.17
2019-05-15T13:34:22.089Z,1.00
2019-05-15T13:36:54.020Z,0.77
2019-05-15T13:39:25.162Z,0.80
2019-05-15T13:41:58.386Z,1.10
2019-05-15T13:44:29.423Z,1.00
2019-05-15T13:47:00.351Z,0.90
2019-05-15T13:49:31.466Z,0.80
2019-05-15T13:52:02.373Z,1.17
2019-05-15T13:54:33.702Z,0.90
2019-05-15T13:57:04.714Z,1.00
2019-05-15T13:59:38.881Z,0.90
2019-05-15T14:02:08.798Z,0.90
2019-05-15T14:04:38.966Z,1.10
2019-05-15T14:07:10.285Z,1.00
2019-05-15T14:09:44.684Z,2.17
2019-05-15T14:12:17.963Z,1.63
2019-05-15T14:14:49.128Z,1.20
2019-05-15T14:17:20.408Z,1.63
2019-05-15T14:19:51.441Z,1.60
2019-05-15T14:22:22.775Z,1.47
2019-05-15T14:24:53.675Z,1.20
2019-05-15T14:27:24.930Z,0.97
2019-05-15T14:29:58.065Z,1.30
2019-05-15T14:32:38.133Z,1.10
2019-05-15T14:35:01.756Z,1.20
2019-05-15T14:37:31.850Z,1.50
2019-05-15T14:40:02.999Z,1.13
2019-05-15T14:42:34.039Z,1.00
2019-05-15T14:45:09.132Z,1.60
2019-05-15T14:47:40.226Z,1.40
2019-05-15T14:50:11.986Z,0.97
2019-05-15T14:52:47.988Z,1.93
2019-05-15T14:55:20.531Z,1.50
2019-05-15T14:57:51.574Z,1.10
2019-05-15T15:00:28.581Z,1.10
2019-05-15T15:02:58.272Z,1.60
2019-05-15T15:05:28.658Z,1.00
2019-05-15T15:08:17.214Z,1.60
2019-05-15T15:10:35.384Z,0.97
2019-05-15T15:13:09.022Z,1.63
2019-05-15T15:15:38.652Z,1.63
2019-05-15T15:18:10.163Z,1.40
2019-05-15T15:20:41.058Z,1.30
2019-05-15T15:23:12.193Z,1.50
2019-05-15T15:25:43.080Z,1.50
2019-05-15T15:28:14.148Z,1.30
2019-05-15T15:30:48.441Z,1.30
2019-05-15T15:33:18.854Z,1.77
2019-05-15T15:35:49.817Z,1.40
2019-05-15T15:38:38.072Z,1.60
2019-05-15T15:40:54.640Z,1.20
2019-05-15T15:43:28.637Z,1.37
2019-05-15T15:45:59.004Z,1.37
2019-05-15T15:48:30.422Z,1.37
2019-05-15T15:51:01.352Z,1.20
2019-05-15T15:53:31.555Z,1.17
2019-05-15T15:56:03.128Z,1.20
2019-05-15T15:58:34.197Z,1.10
2019-05-15T16:01:05.439Z,1.37
2019-05-15T16:03:38.067Z,1.37
2019-05-15T16:06:09.327Z,1.10
2019-05-15T16:08:52.166Z,1.27
2019-05-15T16:11:13.010Z,1.37
2019-05-15T16:13:46.351Z,1.13
2019-05-15T16:16:17.930Z,1.30
2019-05-15T16:18:49.282Z,1.43
2019-05-15T16:21:20.671Z,1.47
2019-05-15T16:23:51.663Z,1.70
2019-05-15T16:26:21.805Z,1.47
2019-05-15T16:28:53.026Z,1.60
2019-05-15T16:31:24.081Z,1.50
2019-05-15T16:33:55.265Z,1.50
2019-05-15T16:36:26.158Z,1.50
2019-05-15T16:39:07.519Z,1.47
2019-05-15T16:41:30.194Z,1.40
2019-05-15T16:44:01.473Z,1.50
2019-05-15T16:46:32.537Z,1.30
2019-05-15T16:49:05.520Z,1.40
2019-05-15T16:51:38.278Z,1.40
2019-05-15T16:54:09.578Z,1.70
2019-05-15T16:56:43.562Z,1.67
2019-05-15T16:59:18.261Z,1.73
2019-05-15T17:01:49.208Z,2.20
2019-05-15T17:04:19.342Z,2.10
2019-05-15T17:06:50.647Z,1.90
2019-05-15T17:09:21.991Z,1.87
2019-05-15T17:11:53.216Z,1.60
2019-05-15T17:14:24.350Z,1.97
2019-05-15T17:16:55.688Z,1.90
2019-05-15T17:19:29.300Z,1.97
2019-05-15T17:21:59.623Z,1.60
2019-05-15T17:24:30.576Z,2.30
2019-05-15T17:27:01.875Z,2.33
2019-05-15T17:29:32.946Z,2.00
2019-05-15T17:32:04.117Z,1.90
2019-05-15T17:34:35.117Z,2.03
2019-05-15T17:37:05.350Z,1.87
2019-05-15T17:39:40.810Z,2.20
2019-05-15T17:42:11.236Z,2.33
2019-05-15T17:44:42.403Z,2.43
2019-05-15T17:47:13.511Z,1.90
2019-05-15T17:49:44.568Z,2.00
2019-05-15T17:52:18.487Z,2.00
2019-05-15T17:54:50.031Z,2.20
2019-05-15T17:57:20.911Z,2.10
2019-05-15T17:59:52.054Z,2.43
2019-05-15T18:02:23.108Z,2.17
2019-05-15T18:04:54.501Z,2.07
2019-05-15T18:07:28.022Z,2.27
2019-05-15T18:09:59.112Z,2.20
2019-05-15T18:12:30.504Z,2.10
2019-05-15T18:15:01.940Z,2.27
2019-05-15T18:17:38.866Z,2.20
2019-05-15T18:20:10.061Z,1.97
2019-05-15T18:22:41.453Z,2.17
2019-05-15T18:25:12.940Z,1.70
2019-05-15T18:27:47.910Z,1.70
2019-05-15T18:30:18.488Z,2.07
2019-05-15T18:32:49.625Z,1.90
2019-05-15T18:35:20.589Z,2.00
2019-05-15T18:37:51.858Z,1.97
2019-05-15T18:40:22.974Z,1.73
2019-05-15T18:42:54.194Z,2.83
2019-05-15T18:45:25.100Z,2.53
2019-05-15T18:47:58.813Z,2.83
2019-05-15T18:50:30.047Z,2.57
2019-05-15T18:53:01.010Z,2.40
2019-05-15T18:55:32.326Z,2.37
2019-05-15T18:58:03.610Z,2.60
2019-05-15T19:00:36.189Z,2.30
2019-05-15T19:03:19.074Z,1.90
2019-05-15T19:05:40.177Z,2.53
2019-05-15T19:08:11.139Z,2.70
2019-05-15T19:10:42.382Z,2.30
2019-05-15T19:13:13.262Z,2.30
2019-05-15T19:15:44.674Z,2.33
2019-05-15T19:18:15.659Z,2.27
2019-05-15T19:20:48.709Z,2.10
2019-05-15T19:23:19.711Z,2.50
2019-05-15T19:25:49.752Z,2.90
2019-05-15T19:28:20.988Z,3.53
2019-05-15T19:30:51.937Z,2.67
2019-05-15T19:33:34.539Z,2.33
2019-05-15T19:35:55.718Z,3.10
2019-05-15T19:38:27.959Z,2.60
2019-05-15T19:41:03.074Z,2.40
2019-05-15T19:43:31.914Z,2.40
2019-05-15T19:46:03.033Z,2.70
2019-05-15T19:48:34.417Z,2.60
2019-05-15T19:51:05.466Z,2.83
2019-05-15T19:53:36.627Z,2.77
2019-05-15T19:56:08.429Z,2.63
2019-05-15T19:58:38.702Z,2.60
2019-05-15T20:01:09.945Z,2.50
2019-05-15T20:03:49.378Z,2.20
2019-05-15T20:06:13.859Z,2.53
2019-05-15T20:08:44.744Z,2.53
2019-05-15T20:11:18.045Z,2.53
2019-05-15T20:13:49.003Z,2.60
2019-05-15T20:16:21.432Z,2.47
2019-05-15T20:18:52.532Z,3.27
2019-05-15T20:21:23.728Z,2.40
2019-05-15T20:23:54.679Z,2.50
2019-05-15T20:26:28.468Z,2.90
2019-05-15T20:28:58.515Z,2.70
2019-05-15T20:31:28.739Z,2.57
2019-05-15T20:34:05.155Z,2.47
2019-05-15T20:36:32.535Z,2.60
2019-05-15T20:39:05.081Z,2.40
2019-05-15T20:41:38.071Z,2.70
2019-05-15T20:44:09.018Z,2.73
2019-05-15T20:46:39.997Z,2.60
2019-05-15T20:49:11.159Z,2.50
2019-05-15T20:51:42.108Z,2.33
2019-05-15T20:54:13.453Z,2.80
2019-05-15T20:56:44.353Z,2.47
2019-05-15T20:59:15.623Z,2.90
2019-05-15T21:01:48.296Z,2.43
2019-05-15T21:04:20.654Z,2.67
2019-05-15T21:06:52.167Z,2.73
2019-05-15T21:09:22.360Z,2.93
2019-05-15T21:11:53.573Z,2.63
2019-05-15T21:14:24.514Z,2.70
2019-05-15T21:16:55.617Z,2.60
2019-05-15T21:19:27.930Z,2.53
2019-05-15T21:21:59.425Z,2.87
2019-05-15T21:24:30.344Z,2.70
2019-05-15T21:27:01.387Z,2.40
2019-05-15T21:29:32.323Z,3.00
2019-05-15T21:32:03.628Z,2.63
2019-05-15T21:34:37.899Z,2.87
2019-05-15T21:37:08.576Z,2.80
2019-05-15T21:39:39.678Z,3.10
2019-05-15T21:42:09.803Z,3.17
2019-05-15T21:44:40.912Z,3.83
2019-05-15T21:47:11.841Z,3.67
2019-05-15T21:49:42.880Z,3.80
2019-05-15T21:52:13.859Z,3.73
2019-05-15T21:54:45.145Z,3.80
2019-05-15T21:57:32.330Z,4.40
2019-05-15T21:59:49.069Z,4.10
2019-05-15T22:02:20.648Z,4.43
2019-05-15T22:04:55.986Z,4.57
2019-05-15T22:07:42.664Z,4.70
2019-05-15T22:10:21.134Z,6.77
2019-05-15T22:12:52.204Z,4.47
2019-05-15T22:15:23.615Z,4.60
2019-05-15T22:17:54.682Z,3.93
2019-05-15T22:20:24.810Z,4.70
2019-05-15T22:22:55.938Z,4.63
2019-05-15T22:25:29.570Z,4.23
2019-05-15T22:28:01.111Z,4.37
2019-05-15T22:30:32.165Z,4.03
2019-05-15T22:33:03.412Z,4.53
2019-05-15T22:35:34.626Z,4.27
2019-05-15T22:38:05.793Z,3.90
2019-05-15T22:40:38.030Z,4.90
2019-05-15T22:43:10.829Z,7.30
2019-05-15T22:45:41.884Z,5.57
2019-05-15T22:48:13.200Z,3.80
2019-05-15T22:50:44.067Z,4.77
2019-05-15T22:53:17.656Z,4.30
2019-05-15T22:55:48.542Z,4.27
2019-05-15T22:58:18.678Z,7.30
2019-05-15T23:00:49.798Z,4.37
2019-05-15T23:03:20.831Z,4.27
2019-05-15T23:05:52.004Z,4.23
2019-05-15T23:08:23.029Z,4.20
2019-05-15T23:10:54.531Z,4.47
2019-05-15T23:13:25.489Z,4.37
2019-05-15T23:15:58.429Z,4.27
2019-05-15T23:18:29.686Z,4.20
2019-05-15T23:21:00.733Z,4.10
2019-05-15T23:23:31.676Z,4.43
2019-05-15T23:26:02.876Z,4.33
2019-05-15T23:28:33.922Z,4.17
2019-05-15T23:31:04.028Z,4.10
2019-05-15T23:33:35.258Z,4.27
2019-05-15T23:36:06.145Z,4.20
2019-05-15T23:38:38.450Z,3.60
2019-05-15T23:41:09.536Z,4.47
2019-05-15T23:43:40.682Z,4.67
2019-05-15T23:46:11.715Z,4.23
2019-05-15T23:48:42.920Z,4.53
2019-05-15T23:51:13.965Z,4.37
2019-05-15T23:53:45.128Z,4.37
2019-05-15T23:56:18.619Z,4.30
2019-05-15T23:58:49.147Z,4.03
